Time;durP1;ratioP1;P1;durP2;ratioP2;P2;SDS_P1;SDS_P2;PMS_P1;PMS_P2;Temp;Humidity;BMP_temperature;BMP_pressure;BME280_temperature;BME280_humidity;BME280_pressure;Samples;Min_cycle;Max_cycle;Signal;HPM_P1;HPM_P2
2022/04/24 00:00:01;;;;;;;12.27;7.15;;;7.00;99.90;;;;;;5048026;28;20447;-42
2022/04/24 00:02:27;;;;;;;9.70;7.05;;;7.00;99.90;;;;;;5048666;28;20049;-45
2022/04/24 00:04:53;;;;;;;9.10;7.00;;;7.00;99.90;;;;;;5048407;28;20049;-42
2022/04/24 00:07:19;;;;;;;10.40;7.18;;;7.40;99.90;;;;;;5048210;28;20091;-41
2022/04/24 00:09:45;;;;;;;9.65;7.15;;;6.90;99.90;;;;;;5048354;28;20084;-41
2022/04/24 00:12:15;;;;;;;9.35;6.85;;;6.80;99.90;;;;;;5048036;28;20059;-43
2022/04/24 00:14:42;;;;;;;10.77;7.10;;;6.70;99.90;;;;;;5048262;28;20045;-43
2022/04/24 00:17:08;;;;;;;11.15;7.60;;;7.00;99.90;;;;;;5048305;28;20045;-42
2022/04/24 00:19:34;;;;;;;10.07;7.57;;;6.50;99.90;;;;;;5048535;28;20450;-42
2022/04/24 00:22:00;;;;;;;9.48;7.43;;;7.10;99.90;;;;;;5048071;28;20045;-42
2022/04/24 00:24:25;;;;;;;11.25;7.63;;;6.70;99.90;;;;;;5047651;28;20572;-44
2022/04/24 00:26:52;;;;;;;9.82;6.90;;;6.60;99.90;;;;;;5047566;28;20040;-42
2022/04/24 00:29:18;;;;;;;11.15;7.18;;;6.70;99.90;;;;;;5048194;28;20033;-42
2022/04/24 00:31:43;;;;;;;11.02;6.60;;;6.70;99.90;;;;;;5047781;28;20476;-41
2022/04/24 00:34:09;;;;;;;9.82;6.53;;;6.70;99.90;;;;;;5047815;28;20049;-44
2022/04/24 00:36:35;;;;;;;12.10;6.82;;;7.20;99.90;;;;;;5048406;28;20119;-42
2022/04/24 00:39:00;;;;;;;8.85;6.95;;;6.70;99.90;;;;;;5048111;28;20095;-41
2022/04/24 00:41:26;;;;;;;10.88;7.55;;;7.60;99.90;;;;;;5048328;28;20037;-47
2022/04/24 00:43:53;;;;;;;9.32;7.03;;;6.60;99.90;;;;;;5048167;28;20084;-41
2022/04/24 00:46:46;;;;;;;10.85;6.60;;;6.50;99.90;;;;;;5047837;28;20774;-42
2022/04/24 00:49:13;;;;;;;8.65;6.45;;;6.50;99.90;;;;;;5047668;28;20404;-45
2022/04/24 00:51:39;;;;;;;10.23;6.93;;;6.50;99.90;;;;;;5047628;28;20045;-42
2022/04/24 00:54:10;;;;;;;10.75;7.30;;;6.50;99.90;;;;;;5047792;28;20049;-43
2022/04/24 00:56:37;;;;;;;9.95;7.15;;;6.40;99.90;;;;;;5048203;28;20088;-42
2022/04/24 00:59:07;;;;;;;13.02;7.78;;;7.00;99.90;;;;;;5047978;28;20040;-42
2022/04/24 01:01:33;;;;;;;10.57;7.15;;;7.40;99.90;;;;;;5047943;28;20107;-45
2022/04/24 01:04:01;;;;;;;10.68;7.82;;;6.20;99.90;;;;;;5047671;28;20036;-43
2022/04/24 01:06:34;;;;;;;13.40;8.80;;;6.20;99.90;;;;;;5047958;28;20041;-44
2022/04/24 01:09:10;;;;;;;13.05;8.10;;;6.10;99.90;;;;;;5048055;28;20043;-43
2022/04/24 01:11:36;;;;;;;10.65;7.80;;;6.10;99.90;;;;;;5047970;28;20036;-42
2022/04/24 01:14:01;;;;;;;12.48;8.10;;;5.80;99.90;;;;;;5047673;28;20392;-44
2022/04/24 01:16:27;;;;;;;14.45;7.60;;;6.00;99.90;;;;;;5048061;28;20456;-43
2022/04/24 01:18:54;;;;;;;10.88;8.00;;;6.50;99.90;;;;;;5051197;28;20048;-42
2022/04/24 01:21:19;;;;;;;10.85;8.15;;;5.70;99.90;;;;;;5051091;28;20040;-46
2022/04/24 01:23:45;;;;;;;13.07;7.90;;;5.80;99.90;;;;;;5051438;28;20151;-41
2022/04/24 01:26:12;;;;;;;11.82;8.35;;;5.80;99.90;;;;;;5050332;28;20399;-43
2022/04/24 01:28:38;;;;;;;10.23;7.88;;;5.80;99.90;;;;;;5051193;28;20491;-42
2022/04/24 01:31:05;;;;;;;12.25;8.68;;;5.80;99.90;;;;;;5050620;28;20053;-41
2022/04/24 01:33:31;;;;;;;12.02;8.55;;;5.50;99.90;;;;;;5051223;28;20067;-42
2022/04/24 01:35:57;;;;;;;12.35;8.55;;;5.70;99.90;;;;;;5051350;28;20045;-42
2022/04/24 01:38:23;;;;;;;12.40;9.10;;;5.70;99.90;;;;;;5049685;28;20049;-41
2022/04/24 01:40:49;;;;;;;11.27;8.60;;;5.70;99.90;;;;;;5051170;28;20044;-42
2022/04/24 01:43:16;;;;;;;11.23;8.38;;;5.60;99.90;;;;;;5051157;28;20037;-42
2022/04/24 01:45:43;;;;;;;13.57;8.45;;;5.50;99.90;;;;;;5051133;28;20179;-41
2022/04/24 01:48:09;;;;;;;12.48;8.75;;;6.10;99.90;;;;;;5050769;28;20577;-41
2022/04/24 01:50:34;;;;;;;12.35;8.93;;;5.50;99.90;;;;;;5050847;28;20460;-41
2022/04/24 01:53:00;;;;;;;12.15;8.40;;;5.50;99.90;;;;;;5050738;28;20051;-42
2022/04/24 01:55:26;;;;;;;14.57;8.75;;;5.40;99.90;;;;;;5050772;28;20195;-42
2022/04/24 01:57:52;;;;;;;11.55;8.60;;;5.40;99.90;;;;;;5051011;28;20052;-43
2022/04/24 02:00:18;;;;;;;13.30;8.52;;;5.40;99.90;;;;;;5050636;28;20033;-41
2022/04/24 02:02:45;;;;;;;12.32;8.73;;;5.50;99.90;;;;;;5051123;28;20051;-43
2022/04/24 02:05:10;;;;;;;13.20;8.80;;;5.50;99.90;;;;;;5050588;28;20049;-41
2022/04/24 02:07:36;;;;;;;13.20;8.77;;;5.60;99.90;;;;;;5051019;28;20037;-41
2022/04/24 02:10:02;;;;;;;11.27;8.75;;;5.40;99.90;;;;;;5050695;28;20056;-41
2022/04/24 02:12:27;;;;;;;11.32;8.60;;;5.40;99.90;;;;;;5050419;28;20048;-42
2022/04/24 02:14:53;;;;;;;11.90;8.23;;;6.00;99.90;;;;;;5050386;28;20048;-42
2022/04/24 02:17:19;;;;;;;11.30;8.52;;;5.30;99.90;;;;;;5050467;28;20140;-43
2022/04/24 02:19:44;;;;;;;12.23;9.02;;;5.30;99.90;;;;;;5050694;28;20033;-41
2022/04/24 02:22:10;;;;;;;12.95;8.00;;;5.30;99.90;;;;;;5050291;28;20037;-41
2022/04/24 02:24:35;;;;;;;12.43;8.55;;;5.30;99.90;;;;;;5050380;28;20457;-41
2022/04/24 02:27:01;;;;;;;11.35;8.60;;;5.30;99.90;;;;;;5049443;28;20385;-43
2022/04/24 02:29:27;;;;;;;11.63;8.13;;;5.30;99.90;;;;;;5049062;28;20555;-42
2022/04/24 02:31:53;;;;;;;13.20;8.35;;;5.30;99.90;;;;;;5050047;28;20057;-41
2022/04/24 02:34:19;;;;;;;10.88;8.18;;;5.30;99.90;;;;;;5049649;28;20049;-41
2022/04/24 02:36:44;;;;;;;11.10;8.43;;;5.30;99.90;;;;;;5049726;28;20044;-41
2022/04/24 02:39:10;;;;;;;12.18;7.35;;;5.40;99.90;;;;;;5049766;28;20119;-41
2022/04/24 02:41:36;;;;;;;11.48;7.63;;;6.10;99.90;;;;;;5049475;28;20079;-41
2022/04/24 02:44:02;;;;;;;12.90;8.77;;;5.30;99.90;;;;;;5050150;28;20045;-41
2022/04/24 02:46:27;;;;;;;11.48;8.30;;;5.30;99.90;;;;;;5049499;28;20044;-42
2022/04/24 02:48:53;;;;;;;11.32;8.40;;;5.20;99.90;;;;;;5050123;28;20115;-42
2022/04/24 02:51:19;;;;;;;10.32;8.02;;;5.20;99.90;;;;;;5049711;28;20110;-42
2022/04/24 02:53:44;;;;;;;11.55;8.07;;;5.10;99.90;;;;;;5048324;28;20400;-41
2022/04/24 02:56:10;;;;;;;12.52;7.47;;;5.10;99.90;;;;;;5049705;28;20041;-42
2022/04/24 02:58:38;;;;;;;12.70;8.60;;;5.70;99.90;;;;;;5048398;28;20055;-42
2022/04/24 03:01:04;;;;;;;11.43;8.55;;;5.00;99.90;;;;;;5049862;28;20049;-41
2022/04/24 03:03:30;;;;;;;11.32;8.15;;;4.80;99.90;;;;;;5049796;28;20751;-41
2022/04/24 03:05:55;;;;;;;10.57;8.30;;;4.80;99.90;;;;;;5049850;28;20045;-41
2022/04/24 03:08:21;;;;;;;10.52;8.52;;;4.80;99.90;;;;;;5049989;28;20079;-43
2022/04/24 03:10:47;;;;;;;12.90;8.63;;;4.90;99.90;;;;;;5049501;28;20094;-41
2022/04/24 03:13:13;;;;;;;11.80;8.73;;;4.90;99.90;;;;;;5049463;28;20048;-43
2022/04/24 03:15:39;;;;;;;10.85;8.40;;;4.90;99.90;;;;;;5049357;28;20543;-41
2022/04/24 03:18:05;;;;;;;12.32;8.93;;;4.80;99.90;;;;;;5049416;28;20681;-42
2022/04/24 03:20:31;;;;;;;13.70;9.68;;;4.80;99.90;;;;;;5048761;28;20488;-41
2022/04/24 03:22:57;;;;;;;11.32;8.55;;;4.80;99.90;;;;;;5049139;28;20053;-41
2022/04/24 03:25:23;;;;;;;14.02;9.77;;;4.70;99.90;;;;;;5048784;28;20111;-42
2022/04/24 03:27:49;;;;;;;11.95;9.05;;;4.70;99.90;;;;;;5048312;28;20045;-42
2022/04/24 03:30:15;;;;;;;13.10;8.75;;;4.80;99.90;;;;;;5048998;28;20063;-41
2022/04/24 03:32:41;;;;;;;13.25;9.48;;;4.80;99.90;;;;;;5049182;28;20053;-41
2022/04/24 03:35:09;;;;;;;11.80;7.90;;;4.60;99.90;;;;;;5049085;28;20040;-42
2022/04/24 03:37:38;;;;;;;12.20;8.35;;;4.50;99.90;;;;;;5049008;28;20048;-42
2022/04/24 03:40:05;;;;;;;12.93;8.75;;;4.70;99.90;;;;;;5048546;28;20086;-42
2022/04/24 03:42:32;;;;;;;12.50;9.27;;;4.60;99.90;;;;;;5047455;28;20151;-43
2022/04/24 03:44:58;;;;;;;12.25;8.98;;;5.40;99.90;;;;;;5049260;28;20040;-43
2022/04/24 03:47:24;;;;;;;12.90;8.55;;;5.00;99.90;;;;;;5048865;28;20392;-41
2022/04/24 03:49:50;;;;;;;12.10;8.50;;;4.70;99.90;;;;;;5049192;28;20041;-41
2022/04/24 03:52:16;;;;;;;12.73;8.23;;;4.70;99.90;;;;;;5048965;28;20486;-41
2022/04/24 03:54:43;;;;;;;12.05;9.32;;;4.70;99.90;;;;;;5048811;28;20040;-43
2022/04/24 03:57:09;;;;;;;12.68;7.93;;;4.80;99.90;;;;;;5048632;28;20417;-42
2022/04/24 03:59:35;;;;;;;15.93;8.65;;;4.80;99.90;;;;;;5048574;28;20124;-41
2022/04/24 04:02:02;;;;;;;10.88;7.53;;;4.80;99.90;;;;;;5048786;28;20091;-42
2022/04/24 04:04:29;;;;;;;13.95;8.38;;;5.00;99.90;;;;;;5048298;28;20049;-42
2022/04/24 04:06:54;;;;;;;11.77;8.30;;;4.70;99.90;;;;;;5048630;28;20036;-42
2022/04/24 04:09:20;;;;;;;14.90;9.30;;;4.90;99.90;;;;;;5048460;28;20121;-42
2022/04/24 04:11:46;;;;;;;12.70;7.97;;;4.70;99.90;;;;;;5048445;28;20036;-41
2022/04/24 04:14:12;;;;;;;13.02;8.80;;;4.90;99.90;;;;;;5048442;28;20510;-41
2022/04/24 04:16:38;;;;;;;12.40;7.70;;;4.90;99.90;;;;;;5048298;28;20037;-41
2022/04/24 04:19:03;;;;;;;12.35;8.35;;;4.90;99.90;;;;;;5047428;28;20507;-41
2022/04/24 04:21:29;;;;;;;14.90;8.90;;;5.00;99.90;;;;;;5047971;28;20477;-41
2022/04/24 04:23:55;;;;;;;14.57;7.95;;;5.00;99.90;;;;;;5048697;28;20049;-42
2022/04/24 04:26:20;;;;;;;10.95;7.60;;;6.10;99.90;;;;;;5047967;28;20480;-44
2022/04/24 04:28:46;;;;;;;13.65;7.47;;;5.10;99.90;;;;;;5047776;28;20669;-41
2022/04/24 04:31:15;;;;;;;12.13;7.97;;;5.30;99.90;;;;;;5047822;28;20136;-41
2022/04/24 04:33:41;;;;;;;12.15;8.18;;;5.20;99.90;;;;;;5048011;28;20052;-42
2022/04/24 04:36:08;;;;;;;11.25;7.78;;;5.30;99.90;;;;;;5048090;28;20476;-42
2022/04/24 04:38:33;;;;;;;11.73;8.30;;;5.30;99.90;;;;;;5047908;28;20087;-43
2022/04/24 04:40:59;;;;;;;16.45;8.63;;;5.40;99.90;;;;;;5048145;28;20033;-41
2022/04/24 04:43:28;;;;;;;12.05;7.25;;;5.40;99.90;;;;;;5048117;28;20049;-41
2022/04/24 04:45:54;;;;;;;12.68;7.93;;;5.60;99.90;;;;;;5048103;28;20510;-41
2022/04/24 04:48:20;;;;;;;11.18;7.93;;;6.60;99.90;;;;;;5048182;28;20040;-41
2022/04/24 04:50:45;;;;;;;13.38;8.35;;;5.40;99.90;;;;;;5047936;28;20041;-41
2022/04/24 04:53:11;;;;;;;12.00;7.70;;;5.40;99.90;;;;;;5050465;28;20051;-42
2022/04/24 04:55:37;;;;;;;12.55;7.97;;;5.40;99.90;;;;;;5052061;28;20136;-42
2022/04/24 04:58:03;;;;;;;11.95;9.10;;;6.10;99.90;;;;;;5052309;28;20053;-41
2022/04/24 05:00:29;;;;;;;15.90;9.23;;;5.60;99.90;;;;;;5051818;28;20110;-42
2022/04/24 05:02:55;;;;;;;14.43;8.05;;;5.40;99.90;;;;;;5051894;28;20168;-41
2022/04/24 05:05:21;;;;;;;11.95;8.57;;;5.50;99.90;;;;;;5051753;28;20114;-42
2022/04/24 05:07:47;;;;;;;12.32;7.68;;;5.50;99.90;;;;;;5051176;28;20399;-41
2022/04/24 05:10:13;;;;;;;10.75;7.50;;;5.60;99.90;;;;;;5051510;28;20045;-41
2022/04/24 05:12:39;;;;;;;17.00;7.35;;;5.70;99.90;;;;;;5051645;28;20442;-42
2022/04/24 05:15:07;;;;;;;14.15;8.50;;;5.80;99.90;;;;;;5051415;28;20044;-41
2022/04/24 05:17:36;;;;;;;13.15;7.53;;;5.90;99.90;;;;;;5051704;28;20086;-41
2022/04/24 05:20:04;;;;;;;11.98;8.95;;;6.00;99.90;;;;;;5051985;28;20043;-42
2022/04/24 05:22:29;;;;;;;12.82;7.70;;;6.00;99.90;;;;;;5051892;28;20048;-41
2022/04/24 05:24:55;;;;;;;10.05;7.88;;;6.60;99.90;;;;;;5051967;28;20033;-40
2022/04/24 05:27:21;;;;;;;11.93;7.75;;;6.40;99.90;;;;;;5050715;28;20488;-42
2022/04/24 05:29:48;;;;;;;10.57;7.63;;;6.50;99.90;;;;;;5051079;28;20055;-42
2022/04/24 05:32:14;;;;;;;13.80;7.63;;;6.60;99.90;;;;;;5050859;28;20053;-41
2022/04/24 05:34:40;;;;;;;14.05;7.68;;;6.70;99.90;;;;;;5051011;28;20111;-41
2022/04/24 05:37:06;;;;;;;12.07;7.63;;;6.80;99.90;;;;;;5051392;28;20416;-42
2022/04/24 05:39:32;;;;;;;12.45;7.57;;;7.00;99.90;;;;;;5050765;28;20045;-42
2022/04/24 05:41:58;;;;;;;12.80;8.20;;;7.00;99.90;;;;;;5050687;28;20579;-41
2022/04/24 05:44:24;;;;;;;10.55;7.68;;;7.90;99.90;;;;;;5050769;28;20037;-41
2022/04/24 05:46:50;;;;;;;11.18;7.47;;;7.40;99.90;;;;;;5050630;28;20102;-41
2022/04/24 05:49:16;;;;;;;12.60;7.97;;;8.30;99.90;;;;;;5050753;28;20195;-42
2022/04/24 05:51:42;;;;;;;10.25;6.80;;;7.90;99.90;;;;;;5050651;28;20048;-41
2022/04/24 05:54:11;;;;;;;13.45;7.40;;;8.00;99.90;;;;;;5050590;28;20128;-43
2022/04/24 05:56:38;;;;;;;10.48;7.00;;;8.40;99.90;;;;;;5050726;28;20045;-41
2022/04/24 05:59:05;;;;;;;11.82;7.50;;;9.00;99.90;;;;;;5050683;28;20049;-41
2022/04/24 06:01:31;;;;;;;12.75;7.97;;;8.80;99.90;;;;;;5050692;28;20040;-44
2022/04/24 06:03:56;;;;;;;9.45;6.85;;;9.50;99.90;;;;;;5050131;28;20048;-42
2022/04/24 06:06:22;;;;;;;10.73;7.45;;;10.30;99.90;;;;;;5050185;28;20059;-45
2022/04/24 06:08:48;;;;;;;15.77;7.25;;;9.90;99.90;;;;;;5050493;28;20171;-42
2022/04/24 06:11:13;;;;;;;11.10;6.63;;;10.60;99.90;;;;;;5050512;28;20127;-43
2022/04/24 06:13:39;;;;;;;11.75;6.40;;;10.30;99.90;;;;;;5049996;28;20049;-42
2022/04/24 06:16:05;;;;;;;9.95;6.93;;;10.50;99.90;;;;;;5050360;28;20055;-41
2022/04/24 06:18:31;;;;;;;10.82;6.38;;;9.90;99.90;;;;;;5050276;28;20098;-43
2022/04/24 06:20:57;;;;;;;11.80;7.00;;;10.50;99.90;;;;;;5050088;28;20045;-43
2022/04/24 06:23:25;;;;;;;10.63;6.85;;;10.60;99.90;;;;;;5050253;28;20694;-44
2022/04/24 06:25:51;;;;;;;8.45;6.35;;;11.50;99.60;;;;;;5049873;28;20045;-41
2022/04/24 06:28:16;;;;;;;8.85;6.03;;;12.60;97.90;;;;;;5049162;28;20048;-44
2022/04/24 06:30:42;;;;;;;11.93;5.97;;;15.70;95.50;;;;;;5048425;28;20052;-43
2022/04/24 06:33:09;;;;;;;10.38;6.00;;;13.90;91.40;;;;;;5050064;28;20049;-41
2022/04/24 06:35:35;;;;;;;10.27;5.45;;;13.90;90.70;;;;;;5050301;28;20037;-43
2022/04/24 06:38:00;;;;;;;8.32;5.57;;;13.30;89.70;;;;;;5049935;28;20423;-43
2022/04/24 06:40:26;;;;;;;11.25;6.05;;;13.00;88.30;;;;;;5048759;28;20032;-43
2022/04/24 06:43:04;;;;;;;8.93;6.10;;;12.90;90.10;;;;;;5049916;28;20152;-42
2022/04/24 06:45:36;;;;;;;11.68;5.10;;;12.80;90.00;;;;;;5049921;28;20059;-42
2022/04/24 06:48:10;;;;;;;7.20;4.28;;;12.70;86.70;;;;;;5049875;28;20438;-42
2022/04/24 06:50:38;;;;;;;10.35;4.82;;;12.60;87.30;;;;;;5049985;28;20051;-43
2022/04/24 06:53:06;;;;;;;8.02;3.83;;;12.60;87.60;;;;;;5049669;28;20083;-41
2022/04/24 06:55:33;;;;;;;6.95;3.53;;;12.40;86.90;;;;;;5049954;28;20045;-43
2022/04/24 06:58:00;;;;;;;8.95;4.45;;;12.30;86.40;;;;;;5049896;28;20051;-42
2022/04/24 07:00:28;;;;;;;5.50;3.20;;;13.00;85.80;;;;;;5049799;28;20129;-45
2022/04/24 07:02:54;;;;;;;6.90;3.50;;;13.40;83.40;;;;;;5049683;28;20044;-45
2022/04/24 07:05:25;;;;;;;6.78;3.47;;;13.20;83.50;;;;;;5049492;28;20114;-44
2022/04/24 07:07:51;;;;;;;5.53;3.38;;;13.40;83.10;;;;;;5049387;28;20045;-42
2022/04/24 07:10:17;;;;;;;5.72;3.35;;;13.30;83.10;;;;;;5048754;28;20052;-42
2022/04/24 07:12:51;;;;;;;10.40;3.63;;;13.80;81.60;;;;;;5049411;28;20051;-45
2022/04/24 07:15:17;;;;;;;5.72;3.30;;;14.90;80.70;;;;;;5048408;28;20049;-43
2022/04/24 07:17:44;;;;;;;4.75;2.78;;;15.00;80.40;;;;;;5049700;28;20036;-41
2022/04/24 07:20:11;;;;;;;8.82;2.72;;;14.90;78.40;;;;;;5049154;28;20040;-43
2022/04/24 07:22:47;;;;;;;6.15;3.45;;;14.70;78.40;;;;;;5049531;28;20041;-41
2022/04/24 07:25:18;;;;;;;6.03;2.95;;;14.50;76.70;;;;;;5048688;28;20123;-45
2022/04/24 07:27:44;;;;;;;5.15;2.70;;;14.60;76.80;;;;;;5048448;28;20098;-41
2022/04/24 07:30:13;;;;;;;5.70;3.67;;;14.40;76.00;;;;;;5048276;28;20514;-42
2022/04/24 07:32:40;;;;;;;6.82;3.20;;;14.50;76.20;;;;;;5048969;28;20514;-44
2022/04/24 07:35:18;;;;;;;9.90;2.20;;;14.40;74.50;;;;;;5048718;28;20399;-42
2022/04/24 07:37:44;;;;;;;4.53;2.33;;;14.70;74.90;;;;;;5049401;28;20044;-46
2022/04/24 07:40:12;;;;;;;6.07;2.45;;;15.20;74.70;;;;;;5047945;28;20040;-42
2022/04/24 07:42:44;;;;;;;6.47;2.20;;;15.50;74.70;;;;;;5048643;28;20515;-43
2022/04/24 07:45:10;;;;;;;3.50;1.70;;;15.40;73.20;;;;;;5048730;28;20130;-44
2022/04/24 07:47:36;;;;;;;4.63;1.55;;;15.30;72.90;;;;;;5049025;28;20048;-42
2022/04/24 07:50:02;;;;;;;5.20;1.80;;;15.20;73.20;;;;;;5048946;28;20052;-43
2022/04/24 07:52:28;;;;;;;2.83;1.30;;;15.30;72.60;;;;;;5048728;28;20040;-42
2022/04/24 07:54:53;;;;;;;5.70;1.55;;;15.80;71.10;;;;;;5048573;28;20041;-43
2022/04/24 07:57:19;;;;;;;3.30;1.27;;;16.40;69.10;;;;;;5048735;28;20055;-44
2022/04/24 07:59:45;;;;;;;3.50;1.17;;;16.90;67.10;;;;;;5048798;28;20036;-42
2022/04/24 08:02:10;;;;;;;4.47;1.58;;;17.90;65.70;;;;;;5048494;28;20439;-43
2022/04/24 08:04:36;;;;;;;3.33;1.17;;;18.80;64.30;;;;;;5048795;28;20075;-47
2022/04/24 08:07:02;;;;;;;2.95;1.33;;;19.60;63.90;;;;;;5048375;28;20041;-43
2022/04/24 08:09:28;;;;;;;3.28;1.20;;;20.20;60.80;;;;;;5048003;28;20098;-45
2022/04/24 08:11:54;;;;;;;3.20;0.90;;;21.00;57.60;;;;;;5048726;28;20041;-45
2022/04/24 08:14:21;;;;;;;2.83;0.70;;;21.70;56.80;;;;;;5048715;28;20480;-43
2022/04/24 08:16:47;;;;;;;3.25;1.17;;;22.30;54.50;;;;;;5048750;28;20045;-43
2022/04/24 08:19:13;;;;;;;3.10;1.20;;;22.40;52.10;;;;;;5048495;28;20048;-46
2022/04/24 08:21:38;;;;;;;3.42;1.42;;;22.60;51.90;;;;;;5048385;28;20056;-44
2022/04/24 08:24:04;;;;;;;6.80;1.30;;;22.90;50.80;;;;;;5048644;28;20041;-43
2022/04/24 08:26:30;;;;;;;4.72;1.10;;;23.00;50.20;;;;;;5048521;28;20502;-44
2022/04/24 08:28:55;;;;;;;4.13;1.52;;;23.30;49.90;;;;;;5035146;28;20142;-44
2022/04/24 08:31:21;;;;;;;3.92;1.20;;;23.70;49.80;;;;;;5049489;28;20514;-46
2022/04/24 08:33:47;;;;;;;3.30;1.45;;;24.10;48.50;;;;;;5050277;28;20060;-46
2022/04/24 08:36:13;;;;;;;4.85;1.60;;;24.40;48.20;;;;;;5049957;28;20128;-46
2022/04/24 08:38:38;;;;;;;3.55;1.10;;;24.80;48.10;;;;;;5049384;28;20045;-47
2022/04/24 08:41:05;;;;;;;3.33;1.30;;;25.20;46.90;;;;;;5049060;28;20036;-47
2022/04/24 08:43:32;;;;;;;2.75;1.60;;;25.00;45.80;;;;;;5049832;28;20103;-44
2022/04/24 08:45:58;;;;;;;4.95;1.50;;;25.40;46.20;;;;;;5049133;28;20037;-46
2022/04/24 08:48:23;;;;;;;3.42;1.30;;;25.90;45.80;;;;;;5048934;28;20079;-44
2022/04/24 08:50:49;;;;;;;4.97;1.38;;;26.70;46.10;;;;;;5049172;28;20056;-47
2022/04/24 08:53:17;;;;;;;4.40;1.52;;;27.20;44.40;;;;;;5047758;28;20052;-45
2022/04/24 08:55:43;;;;;;;2.28;1.13;;;27.80;44.80;;;;;;5049581;28;20120;-47
2022/04/24 08:58:08;;;;;;;3.28;1.70;;;28.40;43.90;;;;;;5049021;28;20188;-46
2022/04/24 09:00:34;;;;;;;2.92;1.35;;;28.50;42.70;;;;;;5048932;28;20472;-47
2022/04/24 09:03:00;;;;;;;3.13;1.90;;;27.90;41.10;;;;;;5048843;28;20749;-45
2022/04/24 09:05:26;;;;;;;3.30;1.48;;;27.40;41.40;;;;;;5048703;28;20044;-47
2022/04/24 09:07:53;;;;;;;3.35;1.70;;;26.30;41.30;;;;;;5049350;28;20036;-48
2022/04/24 09:10:19;;;;;;;4.80;1.48;;;26.30;42.50;;;;;;5045746;28;20131;-51
2022/04/24 09:12:52;;;;;;;4.70;1.65;;;26.60;43.10;;;;;;5044372;28;20080;-46
2022/04/24 09:15:18;;;;;;;3.75;1.63;;;26.90;41.30;;;;;;5045672;28;20140;-43
2022/04/24 09:17:44;;;;;;;4.32;1.40;;;26.50;41.10;;;;;;5048081;28;20132;-46
2022/04/24 09:20:18;;;;;;;4.30;1.70;;;26.20;40.90;;;;;;5047474;28;20037;-49
2022/04/24 09:22:44;;;;;;;4.35;1.80;;;26.40;41.60;;;;;;5048521;28;20413;-47
2022/04/24 09:25:12;;;;;;;3.38;1.70;;;26.90;42.70;;;;;;5045601;28;20388;-48
2022/04/24 09:27:38;;;;;;;4.30;1.88;;;27.50;42.30;;;;;;5047535;28;20041;-50
2022/04/24 09:30:05;;;;;;;3.50;1.42;;;28.10;41.20;;;;;;5037700;28;20064;-50
2022/04/24 09:32:45;;;;;;;6.88;1.80;;;28.30;44.90;;;;;;5047057;28;20052;-48
2022/04/24 09:35:25;;;;;;;3.25;1.42;;;29.00;40.80;;;;;;5047727;28;20076;-49
2022/04/24 09:37:52;;;;;;;5.22;1.50;;;29.50;39.60;;;;;;5047497;28;20063;-46
2022/04/24 09:40:19;;;;;;;3.30;1.70;;;29.90;40.80;;;;;;5047628;28;20800;-52
2022/04/24 09:42:54;;;;;;;4.63;2.20;;;30.30;40.00;;;;;;5048091;28;20052;-52
2022/04/24 09:45:41;;;;;;;2.85;1.10;;;30.30;37.30;;;;;;5047931;28;20131;-50
2022/04/24 09:48:14;;;;;;;3.75;1.63;;;30.40;39.80;;;;;;5047060;28;20052;-51
2022/04/24 09:50:41;;;;;;;2.58;1.17;;;29.70;38.50;;;;;;5047666;28;20526;-49
2022/04/24 09:53:25;;;;;;;3.78;1.63;;;29.60;39.70;;;;;;5046387;28;20049;-49
2022/04/24 09:55:51;;;;;;;2.53;1.30;;;29.80;38.70;;;;;;5045597;28;20468;-51
2022/04/24 09:58:18;;;;;;;2.60;1.25;;;29.50;38.80;;;;;;5048223;28;20156;-50
2022/04/24 10:00:44;;;;;;;4.22;1.20;;;29.40;39.00;;;;;;5048012;28;20080;-51
2022/04/24 10:03:16;;;;;;;2.70;1.10;;;29.60;39.10;;;;;;5048016;28;20045;-47
2022/04/24 10:05:51;;;;;;;4.05;1.00;;;29.70;38.20;;;;;;5047250;28;20099;-47
2022/04/24 10:08:18;;;;;;;2.40;1.27;;;29.70;38.00;;;;;;5047391;28;20041;-49
2022/04/24 10:10:44;;;;;;;2.85;1.27;;;29.80;38.00;;;;;;5046260;28;20730;-51
2022/04/24 10:13:11;;;;;;;3.33;1.25;;;29.90;37.20;;;;;;5046815;28;20144;-50
2022/04/24 10:15:52;;;;;;;3.13;1.25;;;30.00;38.00;;;;;;5045317;28;20060;-49
2022/04/24 10:18:35;;;;;;;3.78;0.98;;;30.10;37.00;;;;;;5047182;28;20041;-50
2022/04/24 10:21:26;;;;;;;3.80;1.40;;;29.90;35.20;;;;;;5045175;28;20053;-46
2022/04/24 10:23:52;;;;;;;4.97;1.45;;;28.90;35.60;;;;;;5047039;28;20395;-49
2022/04/24 10:26:27;;;;;;;3.22;1.30;;;28.60;36.70;;;;;;5046100;28;20045;-48
2022/04/24 10:29:07;;;;;;;4.50;1.17;;;27.90;36.90;;;;;;5021023;28;20110;-50
2022/04/24 10:31:49;;;;;;;3.80;1.00;;;27.20;36.50;;;;;;5044462;28;20064;-49
2022/04/24 10:34:20;;;;;;;2.20;0.88;;;26.20;36.20;;;;;;5046302;28;20122;-48
2022/04/24 10:36:57;;;;;;;7.18;0.95;;;26.10;37.00;;;;;;5048907;28;20464;-45
2022/04/24 10:39:25;;;;;;;5.30;1.30;;;25.90;37.60;;;;;;5048570;28;20045;-44
2022/04/24 10:41:59;;;;;;;4.32;1.40;;;25.70;37.30;;;;;;5048549;28;20048;-47
2022/04/24 10:44:28;;;;;;;2.17;0.77;;;25.20;37.80;;;;;;5048903;28;20041;-45
2022/04/24 10:46:57;;;;;;;5.70;1.30;;;24.10;39.50;;;;;;5048881;28;20037;-45
2022/04/24 10:49:25;;;;;;;2.42;1.48;;;23.10;41.00;;;;;;5048211;28;20080;-47
2022/04/24 10:51:59;;;;;;;2.72;0.95;;;21.90;42.60;;;;;;5047818;28;20515;-45
2022/04/24 10:54:38;;;;;;;5.40;1.35;;;21.20;44.20;;;;;;5049299;28;20039;-46
2022/04/24 10:57:40;;;;;;;6.72;1.13;;;20.70;45.40;;;;;;5048821;28;20068;-45
2022/04/24 11:00:19;;;;;;;2.08;1.00;;;20.00;46.70;;;;;;5048521;28;20109;-46
2022/04/24 11:02:47;;;;;;;4.05;1.13;;;19.30;46.50;;;;;;5048473;28;20116;-44
2022/04/24 11:05:26;;;;;;;3.50;1.15;;;19.00;47.20;;;;;;5048636;28;20127;-47
2022/04/24 11:08:04;;;;;;;3.60;1.20;;;18.70;47.60;;;;;;5047956;28;20048;-46
2022/04/24 11:10:39;;;;;;;2.72;1.15;;;18.60;49.00;;;;;;5047954;28;20122;-49
2022/04/24 11:13:07;;;;;;;3.92;1.25;;;18.60;49.10;;;;;;5047135;28;20194;-44
2022/04/24 11:15:49;;;;;;;3.42;1.75;;;18.70;48.90;;;;;;5049044;28;20056;-48
2022/04/24 11:18:24;;;;;;;3.35;1.17;;;18.80;50.60;;;;;;5049369;28;20196;-47
2022/04/24 11:20:58;;;;;;;7.63;1.73;;;18.90;50.30;;;;;;5048911;28;20048;-45
2022/04/24 11:23:29;;;;;;;9.18;1.17;;;18.60;50.00;;;;;;5050140;28;20045;-44
2022/04/24 11:25:56;;;;;;;6.72;1.05;;;18.40;49.50;;;;;;5050734;28;20055;-46
2022/04/24 11:28:43;;;;;;;3.63;2.08;;;18.20;49.70;;;;;;5049355;28;20041;-46
2022/04/24 11:31:28;;;;;;;2.80;0.98;;;18.30;50.50;;;;;;5047516;28;20071;-48
2022/04/24 11:33:59;;;;;;;4.43;1.00;;;18.40;50.30;;;;;;5048977;28;20056;-46
2022/04/24 11:36:33;;;;;;;3.13;1.05;;;18.40;50.10;;;;;;5048134;28;20053;-45
2022/04/24 11:39:11;;;;;;;3.17;1.25;;;18.30;50.50;;;;;;5049737;28;20076;-45
2022/04/24 11:41:51;;;;;;;4.10;0.95;;;18.40;50.80;;;;;;5049096;28;20156;-50
2022/04/24 11:50:13;;;;;;;3.30;1.40;;;18.10;49.50;;;;;;5048293;28;20693;-43
2022/04/24 11:52:49;;;;;;;3.65;1.13;;;17.90;50.50;;;;;;5049179;28;20044;-40
2022/04/24 11:55:19;;;;;;;2.97;1.10;;;17.80;51.40;;;;;;5049455;28;20052;-40
2022/04/24 11:57:59;;;;;;;3.30;1.08;;;17.90;51.40;;;;;;5048252;28;20051;-41
2022/04/24 12:00:37;;;;;;;5.55;1.80;;;17.90;51.50;;;;;;5049700;28;20396;-41
2022/04/24 12:03:05;;;;;;;2.65;1.08;;;18.10;52.20;;;;;;5049802;28;20053;-41
2022/04/24 12:05:32;;;;;;;2.45;1.25;;;18.30;51.60;;;;;;5049553;28;20060;-41
2022/04/24 12:07:58;;;;;;;2.28;1.20;;;18.30;50.60;;;;;;5049600;28;20033;-41
2022/04/24 12:10:25;;;;;;;2.90;1.20;;;18.10;50.30;;;;;;5049757;28;20152;-41
2022/04/24 12:12:53;;;;;;;4.93;1.92;;;18.10;51.30;;;;;;5049954;28;20400;-41
2022/04/24 12:15:24;;;;;;;5.70;1.58;;;18.20;52.10;;;;;;5049766;28;20364;-40
2022/04/24 12:17:57;;;;;;;7.80;1.75;;;18.30;52.80;;;;;;5048348;28;20037;-41
2022/04/24 12:20:38;;;;;;;6.55;2.17;;;18.30;52.50;;;;;;5049819;28;20029;-40
2022/04/24 12:23:12;;;;;;;4.25;2.00;;;18.30;52.50;;;;;;5049807;28;20052;-40
2022/04/24 12:25:50;;;;;;;2.38;1.40;;;18.40;53.00;;;;;;5049592;28;20072;-41
2022/04/24 12:28:33;;;;;;;3.53;1.80;;;18.40;52.70;;;;;;5049718;28;20041;-40
2022/04/24 12:31:01;;;;;;;3.38;1.70;;;18.20;51.60;;;;;;5049213;28;20059;-41
2022/04/24 12:33:31;;;;;;;6.32;1.92;;;18.00;52.70;;;;;;5049162;28;20061;-41
2022/04/24 12:36:13;;;;;;;4.97;1.83;;;17.90;53.10;;;;;;5049634;28;20045;-40
2022/04/24 12:38:39;;;;;;;2.67;1.67;;;17.90;53.20;;;;;;5049516;28;20049;-41
2022/04/24 12:41:12;;;;;;;4.50;1.65;;;17.60;53.40;;;;;;5049273;28;20037;-42
2022/04/24 12:43:38;;;;;;;8.23;1.83;;;17.60;54.30;;;;;;5049227;28;20053;-40
2022/04/24 12:46:05;;;;;;;3.03;1.65;;;17.80;54.50;;;;;;5049274;28;20116;-42
2022/04/24 12:48:31;;;;;;;4.60;2.17;;;18.00;54.20;;;;;;5047752;28;20126;-40
2022/04/24 12:50:56;;;;;;;3.17;1.80;;;18.00;53.30;;;;;;5047912;28;20040;-41
2022/04/24 12:53:23;;;;;;;6.32;2.75;;;17.60;53.00;;;;;;5049316;28;20044;-41
2022/04/24 12:55:51;;;;;;;5.07;1.60;;;17.10;53.90;;;;;;5049123;28;20037;-40
2022/04/24 12:58:18;;;;;;;5.25;2.08;;;16.90;54.90;;;;;;5049234;28;20049;-40